Time;durP1;ratioP1;P1;durP2;ratioP2;P2;SDS_P1;SDS_P2;PMS_P1;PMS_P2;Temp;Humidity;BMP_temperature;BMP_pressure;BME280_temperature;BME280_humidity;BME280_pressure;Samples;Min_cycle;Max_cycle;Signal;HPM_P1;HPM_P2
2022/04/21 00:00:00;;;;;;;7.47;5.07;;;7.30;99.90;;;;;;5016475;28;20099;-70
2022/04/21 00:02:26;;;;;;;8.88;5.22;;;7.30;99.90;;;;;;5008968;28;20511;-69
2022/04/21 00:04:52;;;;;;;8.57;5.63;;;7.30;99.90;;;;;;5016508;28;20045;-70
2022/04/21 00:07:17;;;;;;;8.98;5.75;;;7.30;99.90;;;;;;5013227;28;20103;-69
2022/04/21 00:09:43;;;;;;;12.10;5.82;;;7.30;99.90;;;;;;5014744;28;20516;-69
2022/04/21 00:12:09;;;;;;;11.02;5.90;;;7.30;99.90;;;;;;5007189;28;21209;-69
2022/04/21 00:14:35;;;;;;;8.98;5.65;;;7.30;99.90;;;;;;5007887;28;20042;-69
2022/04/21 00:17:00;;;;;;;10.63;5.90;;;7.20;99.90;;;;;;5007964;28;20088;-69
2022/04/21 00:19:26;;;;;;;8.80;5.57;;;7.20;99.90;;;;;;5010841;28;20053;-69
2022/04/21 00:24:36;;;;;;;8.15;5.90;;;7.20;99.90;;;;;;5014112;28;20553;-69
2022/04/21 00:27:02;;;;;;;10.48;6.20;;;7.20;99.90;;;;;;5010359;28;20053;-70
2022/04/21 00:29:28;;;;;;;15.85;6.57;;;7.20;99.90;;;;;;5009855;28;20093;-69
2022/04/21 00:31:54;;;;;;;8.73;6.18;;;7.20;99.90;;;;;;5014668;28;20050;-69
2022/04/21 00:34:19;;;;;;;9.48;6.78;;;7.20;99.90;;;;;;5007237;28;20042;-69
2022/04/21 00:36:45;;;;;;;9.85;6.97;;;7.10;99.90;;;;;;5015153;28;20052;-70
2022/04/21 00:39:11;;;;;;;13.98;7.70;;;7.10;99.90;;;;;;5004476;28;21762;-69
2022/04/21 00:41:37;;;;;;;9.60;6.93;;;7.10;99.90;;;;;;5008704;28;20049;-69
2022/04/21 00:44:03;;;;;;;13.02;8.23;;;7.10;99.90;;;;;;5005552;28;20061;-70
2022/04/21 00:46:29;;;;;;;12.77;7.95;;;7.10;99.90;;;;;;5005560;28;20570;-70
2022/04/21 00:48:56;;;;;;;12.30;7.68;;;7.00;99.90;;;;;;5009483;28;20056;-69
2022/04/21 00:51:23;;;;;;;13.35;8.02;;;7.00;99.90;;;;;;5007147;28;20132;-69
2022/04/21 00:53:49;;;;;;;15.00;9.15;;;7.00;99.90;;;;;;5010488;28;20056;-69
2022/04/21 00:56:15;;;;;;;14.23;8.68;;;6.90;99.90;;;;;;5011795;28;20057;-69
2022/04/21 00:58:43;;;;;;;14.00;8.75;;;7.00;99.90;;;;;;5009711;28;20565;-69
2022/04/21 01:02:46;;;;;;;15.93;9.15;;;7.00;99.90;;;;;;5009634;28;20076;-70
2022/04/21 01:03:55;;;;;;;14.50;9.43;;;6.90;99.90;;;;;;5010359;28;20159;-68
2022/04/21 01:06:22;;;;;;;15.15;9.18;;;6.90;99.90;;;;;;5008842;28;20587;-70
2022/04/21 01:08:48;;;;;;;16.52;9.93;;;6.90;99.90;;;;;;5010268;28;20081;-69
2022/04/21 01:11:16;;;;;;;20.63;10.13;;;6.90;99.90;;;;;;5011166;28;20049;-69
2022/04/21 01:13:42;;;;;;;17.25;10.38;;;6.80;99.90;;;;;;5009429;28;20111;-69
2022/04/21 01:16:08;;;;;;;17.63;11.07;;;6.80;99.90;;;;;;5015400;28;20149;-69
2022/04/21 01:18:34;;;;;;;18.30;10.55;;;6.80;99.90;;;;;;5006229;28;20049;-69
2022/04/21 01:20:59;;;;;;;18.67;10.40;;;6.80;99.90;;;;;;5006765;28;20057;-69
2022/04/21 01:23:25;;;;;;;17.83;10.95;;;6.80;99.90;;;;;;5008570;28;20049;-69
2022/04/21 01:25:51;;;;;;;19.55;10.80;;;6.80;99.90;;;;;;5014231;28;20405;-69
2022/04/21 01:28:18;;;;;;;18.35;11.13;;;6.80;99.90;;;;;;5012334;28;20061;-69
2022/04/21 01:30:43;;;;;;;15.57;10.80;;;6.80;99.90;;;;;;5011895;28;20437;-69
2022/04/21 01:33:09;;;;;;;21.10;11.40;;;6.70;99.90;;;;;;5013568;28;20103;-69
2022/04/21 01:35:36;;;;;;;17.52;10.80;;;6.70;99.90;;;;;;5009963;28;20485;-69
2022/04/21 01:43:30;;;;;;;19.30;11.98;;;6.70;99.90;;;;;;5028224;28;20065;-69
2022/04/21 01:45:56;;;;;;;19.67;12.10;;;6.70;99.90;;;;;;5014263;28;20133;-69
2022/04/21 01:48:21;;;;;;;22.38;12.23;;;6.70;99.90;;;;;;5014333;28;20057;-70
2022/04/21 01:50:47;;;;;;;22.90;12.90;;;6.60;99.90;;;;;;5014021;28;20133;-70
2022/04/21 01:53:12;;;;;;;18.88;12.20;;;6.60;99.90;;;;;;5010893;28;20107;-69
2022/04/21 01:55:38;;;;;;;20.67;13.50;;;6.70;99.90;;;;;;5013935;28;20041;-69
2022/04/21 01:58:04;;;;;;;20.83;12.60;;;6.70;99.90;;;;;;5013731;28;20044;-69
2022/04/21 02:00:29;;;;;;;20.88;12.55;;;6.70;99.90;;;;;;5007236;28;20046;-69
2022/04/21 02:02:55;;;;;;;18.98;11.95;;;6.60;99.90;;;;;;5013322;28;20535;-69
2022/04/21 02:05:21;;;;;;;20.52;13.05;;;6.60;99.90;;;;;;5011194;28;20292;-70
2022/04/21 02:07:47;;;;;;;18.58;13.13;;;6.60;99.90;;;;;;5015837;28;20451;-69
2022/04/21 02:10:15;;;;;;;18.08;12.48;;;6.60;99.90;;;;;;5011462;28;20381;-69
2022/04/21 02:12:41;;;;;;;22.98;13.13;;;6.60;99.90;;;;;;5010631;28;20099;-69
2022/04/21 02:15:08;;;;;;;21.60;13.27;;;6.60;99.90;;;;;;5010851;28;20053;-69
2022/04/21 02:17:35;;;;;;;21.10;13.50;;;6.60;99.90;;;;;;5018445;28;20045;-69
2022/04/21 02:20:03;;;;;;;19.67;12.80;;;6.60;99.90;;;;;;5019092;28;20053;-70
2022/04/21 02:22:28;;;;;;;21.27;13.25;;;6.60;99.90;;;;;;5017254;28;20053;-70
2022/04/21 02:24:54;;;;;;;22.02;13.32;;;6.60;99.90;;;;;;5014211;28;20513;-69
2022/04/21 02:27:20;;;;;;;20.38;12.73;;;6.50;99.90;;;;;;5021492;28;20053;-70
2022/04/21 02:29:45;;;;;;;24.00;13.52;;;6.50;99.90;;;;;;5017744;28;20610;-69
2022/04/21 02:32:11;;;;;;;21.92;13.73;;;6.50;99.90;;;;;;5016367;28;20038;-70
2022/04/21 02:34:36;;;;;;;24.98;15.02;;;6.50;99.90;;;;;;5014764;28;20597;-70
2022/04/21 02:37:02;;;;;;;22.63;14.07;;;6.40;99.90;;;;;;5011640;28;20083;-70
2022/04/21 02:39:28;;;;;;;21.90;14.27;;;6.40;99.90;;;;;;5012350;28;20045;-70
2022/04/21 02:41:54;;;;;;;23.35;14.20;;;6.40;99.90;;;;;;5009767;28;20412;-70
2022/04/21 02:44:19;;;;;;;23.75;14.07;;;6.40;99.90;;;;;;5013672;28;20049;-70
2022/04/21 02:46:45;;;;;;;30.67;14.35;;;6.40;99.90;;;;;;5010483;28;20513;-70
2022/04/21 02:49:11;;;;;;;22.05;13.60;;;6.40;99.90;;;;;;5010923;28;20120;-70
2022/04/21 02:51:37;;;;;;;23.67;14.00;;;6.40;99.90;;;;;;5011164;28;20419;-70
2022/04/21 02:59:32;;;;;;;28.98;16.15;;;6.40;99.90;;;;;;5017995;28;20060;-70
2022/04/21 03:01:57;;;;;;;22.35;15.02;;;6.40;99.90;;;;;;5014010;28;20402;-70
2022/04/21 03:04:23;;;;;;;24.73;15.63;;;6.40;99.90;;;;;;5006743;28;20042;-70
2022/04/21 03:06:49;;;;;;;25.45;15.63;;;6.40;99.90;;;;;;5008391;28;20088;-70
2022/04/21 03:09:14;;;;;;;25.25;15.82;;;6.30;99.90;;;;;;5012374;28;20053;-70
2022/04/21 03:11:40;;;;;;;23.88;15.63;;;6.30;99.90;;;;;;5010056;28;20092;-70
2022/04/21 03:14:06;;;;;;;27.08;15.85;;;6.30;99.90;;;;;;5013529;28;20064;-70
2022/04/21 03:16:31;;;;;;;24.15;15.65;;;6.30;99.90;;;;;;5017454;28;20040;-70
2022/04/21 03:18:57;;;;;;;24.25;16.73;;;6.30;99.90;;;;;;5013459;28;20052;-70
2022/04/21 03:24:19;;;;;;;28.30;15.07;;;6.20;99.90;;;;;;5011354;28;20069;-69
2022/04/21 03:26:45;;;;;;;24.25;15.85;;;6.20;99.90;;;;;;5008317;28;20042;-70
2022/04/21 03:29:11;;;;;;;24.60;15.57;;;6.20;99.90;;;;;;5011292;28;20053;-71
2022/04/21 03:31:37;;;;;;;29.02;15.77;;;6.20;99.90;;;;;;5011621;28;20158;-71
2022/04/21 03:34:04;;;;;;;23.17;14.18;;;6.20;99.90;;;;;;5006806;28;20049;-70
2022/04/21 03:36:33;;;;;;;30.75;16.42;;;6.10;99.90;;;;;;5012331;28;20049;-70
2022/04/21 03:38:59;;;;;;;22.25;13.65;;;6.10;99.90;;;;;;5009229;28;20408;-70
2022/04/21 03:41:25;;;;;;;22.33;14.43;;;6.10;99.90;;;;;;5008034;28;20053;-71
2022/04/21 03:43:51;;;;;;;26.48;15.38;;;6.00;99.90;;;;;;5011191;28;20108;-71
2022/04/21 03:46:16;;;;;;;24.45;15.15;;;6.00;99.90;;;;;;5010075;28;20037;-71
2022/04/21 03:48:42;;;;;;;24.73;15.00;;;6.00;99.90;;;;;;5013124;28;20049;-71
2022/04/21 03:51:10;;;;;;;25.60;14.13;;;6.10;99.90;;;;;;5013861;28;20037;-70
2022/04/21 03:53:35;;;;;;;24.98;15.25;;;6.10;99.90;;;;;;5009410;28;20049;-70
2022/04/21 03:56:01;;;;;;;25.30;15.07;;;6.10;99.90;;;;;;5011064;28;20119;-71
2022/04/21 03:58:27;;;;;;;22.48;14.18;;;6.10;99.90;;;;;;5010503;28;20151;-71
2022/04/21 04:00:52;;;;;;;22.50;14.18;;;6.10;99.90;;;;;;5013447;28;20495;-70
2022/04/21 04:03:18;;;;;;;20.27;13.07;;;6.00;99.90;;;;;;5010470;28;20567;-70
2022/04/21 04:05:43;;;;;;;20.13;13.38;;;6.10;99.90;;;;;;5010104;28;20037;-70
2022/04/21 04:10:53;;;;;;;21.08;13.70;;;6.00;99.90;;;;;;5011757;28;20417;-71
2022/04/21 04:13:23;;;;;;;27.05;13.85;;;6.10;99.90;;;;;;5008212;28;20698;-71
2022/04/21 04:15:51;;;;;;;19.45;13.20;;;6.10;99.90;;;;;;5010574;28;20140;-71
2022/04/21 04:18:21;;;;;;;21.90;12.70;;;6.10;99.90;;;;;;5014171;28;20076;-70
2022/04/21 04:20:47;;;;;;;22.55;12.82;;;6.10;99.90;;;;;;5010536;28;20052;-70
2022/04/21 04:23:20;;;;;;;22.13;13.18;;;6.00;99.90;;;;;;5011421;28;20045;-70
2022/04/21 04:25:46;;;;;;;15.55;9.73;;;6.00;99.90;;;;;;5013105;28;20160;-71
2022/04/21 04:28:13;;;;;;;18.88;12.60;;;6.00;99.90;;;;;;5011286;28;20044;-70
2022/04/21 04:30:39;;;;;;;23.25;12.05;;;6.00;99.90;;;;;;5011597;28;20049;-71
2022/04/21 04:33:06;;;;;;;19.85;12.65;;;6.00;99.90;;;;;;5006721;28;20050;-70
2022/04/21 04:35:31;;;;;;;23.98;12.23;;;5.90;99.90;;;;;;5010935;28;20049;-70
2022/04/21 04:37:58;;;;;;;18.67;11.52;;;5.90;99.90;;;;;;5012687;28;20046;-70
2022/04/21 04:40:24;;;;;;;18.40;12.65;;;5.90;99.90;;;;;;5013400;28;20057;-70
2022/04/21 04:42:52;;;;;;;18.52;11.73;;;5.90;99.90;;;;;;5007917;28;20052;-70
2022/04/21 04:48:02;;;;;;;20.73;12.13;;;5.80;99.90;;;;;;5007476;28;20069;-71
2022/04/21 04:50:28;;;;;;;21.33;12.48;;;5.90;99.90;;;;;;5006561;28;20057;-70
2022/04/21 04:53:00;;;;;;;23.75;12.38;;;5.90;99.90;;;;;;5013942;28;20075;-71
2022/04/21 04:55:27;;;;;;;18.63;12.38;;;5.90;99.90;;;;;;5008222;28;20107;-69
2022/04/21 04:57:53;;;;;;;20.20;12.25;;;5.90;99.90;;;;;;5009651;28;20056;-70
2022/04/21 05:00:19;;;;;;;21.98;12.35;;;5.90;99.90;;;;;;5009560;28;20057;-70
2022/04/21 05:02:45;;;;;;;18.52;12.07;;;5.90;99.90;;;;;;5009492;28;20397;-70
2022/04/21 05:05:14;;;;;;;20.05;12.43;;;6.00;99.90;;;;;;5012053;28;20117;-70
2022/04/21 05:07:39;;;;;;;19.50;12.65;;;6.10;99.90;;;;;;5029023;28;20052;-70
2022/04/21 05:10:09;;;;;;;19.83;12.50;;;6.10;99.90;;;;;;5007584;28;20041;-70
2022/04/21 05:12:34;;;;;;;17.60;11.65;;;6.20;99.90;;;;;;5016083;28;20030;-70
2022/04/21 05:15:00;;;;;;;18.00;12.07;;;6.30;99.90;;;;;;5012786;28;20042;-70
2022/04/21 05:17:26;;;;;;;16.80;11.55;;;6.30;99.90;;;;;;5014307;28;20049;-70
2022/04/21 05:19:52;;;;;;;16.60;11.52;;;6.40;99.90;;;;;;5010656;28;20136;-67
2022/04/21 05:22:18;;;;;;;17.95;11.27;;;6.50;99.90;;;;;;5015575;28;20065;-67
2022/04/21 05:24:51;;;;;;;16.48;10.93;;;6.50;99.90;;;;;;5017695;28;20127;-66
2022/04/21 05:27:17;;;;;;;16.20;10.98;;;6.70;99.90;;;;;;5033841;28;20044;-68
2022/04/21 05:32:35;;;;;;;15.05;10.05;;;6.90;99.90;;;;;;5015188;28;20054;-67
2022/04/21 05:35:00;;;;;;;19.70;11.38;;;6.90;99.90;;;;;;5009774;28;20050;-68
2022/04/21 05:37:26;;;;;;;17.98;10.48;;;7.00;99.90;;;;;;5011779;28;20075;-67
2022/04/21 05:39:52;;;;;;;16.00;10.40;;;7.10;99.90;;;;;;5012660;28;20120;-71
2022/04/21 05:42:23;;;;;;;16.55;10.65;;;7.20;99.90;;;;;;5013445;28;20385;-71
2022/04/21 05:44:53;;;;;;;17.95;10.48;;;7.30;99.90;;;;;;5014989;28;20049;-71
2022/04/21 05:47:20;;;;;;;16.20;10.18;;;7.40;99.90;;;;;;5011972;28;20136;-71
2022/04/21 05:49:46;;;;;;;14.63;10.15;;;7.50;99.90;;;;;;5005769;28;20053;-71
2022/04/21 05:52:13;;;;;;;17.25;10.63;;;7.60;99.90;;;;;;5006838;28;20252;-72
2022/04/21 05:54:39;;;;;;;15.25;10.27;;;7.70;99.90;;;;;;5008256;28;20049;-72
2022/04/21 05:57:05;;;;;;;18.63;11.18;;;7.90;99.90;;;;;;5011384;28;20060;-71
2022/04/21 05:59:32;;;;;;;17.20;10.40;;;8.00;99.90;;;;;;5008928;28;20049;-71
2022/04/21 06:01:59;;;;;;;16.02;10.00;;;8.10;99.90;;;;;;5016219;28;20420;-67
2022/04/21 06:04:24;;;;;;;13.82;9.63;;;8.20;99.90;;;;;;4993841;28;20049;-67
2022/04/21 06:06:50;;;;;;;18.05;10.30;;;8.40;99.90;;;;;;5009429;28;20452;-67
2022/04/21 06:09:16;;;;;;;15.15;10.07;;;8.50;99.90;;;;;;5011148;28;20452;-67
2022/04/21 06:11:43;;;;;;;13.95;9.32;;;8.60;99.90;;;;;;5012600;28;20056;-67
2022/04/21 06:14:09;;;;;;;15.88;9.40;;;8.80;99.90;;;;;;5010194;28;20394;-68
2022/04/21 06:16:35;;;;;;;15.32;8.45;;;8.90;99.90;;;;;;5010264;28;20550;-67
2022/04/21 06:19:00;;;;;;;13.77;9.20;;;9.00;99.90;;;;;;5011811;28;20063;-67
2022/04/21 06:21:26;;;;;;;12.75;8.90;;;9.10;99.90;;;;;;5018331;28;20044;-67
2022/04/21 06:23:52;;;;;;;13.32;9.80;;;9.30;99.90;;;;;;5016543;28;20284;-67
2022/04/21 06:26:17;;;;;;;13.55;8.85;;;9.40;99.90;;;;;;5016903;28;20041;-68
2022/04/21 06:28:43;;;;;;;13.85;8.20;;;9.50;99.90;;;;;;5010732;28;20042;-67
2022/04/21 06:31:10;;;;;;;13.55;8.25;;;9.60;99.90;;;;;;5013442;28;20151;-68
2022/04/21 06:33:35;;;;;;;11.18;8.13;;;9.70;99.90;;;;;;5013622;28;20054;-68
2022/04/21 06:36:03;;;;;;;12.63;8.25;;;9.80;99.90;;;;;;5007736;28;20045;-68
2022/04/21 06:38:29;;;;;;;14.80;7.53;;;9.90;99.90;;;;;;5008923;28;20500;-68
2022/04/21 06:40:55;;;;;;;11.55;7.78;;;10.10;99.90;;;;;;5009788;28;20040;-69
2022/04/21 06:48:49;;;;;;;10.30;7.00;;;10.40;99.90;;;;;;5018720;28;20615;-76
2022/04/21 06:51:16;;;;;;;10.73;6.47;;;10.60;99.90;;;;;;5017183;28;20140;-76
2022/04/21 06:53:42;;;;;;;12.02;7.38;;;10.60;99.90;;;;;;5013188;28;20052;-76
2022/04/21 06:56:08;;;;;;;9.05;6.32;;;10.70;99.90;;;;;;5018253;28;20040;-76
2022/04/21 06:58:34;;;;;;;10.20;6.60;;;10.80;99.90;;;;;;5010975;28;20038;-78
2022/04/21 07:01:01;;;;;;;9.18;6.25;;;10.80;99.90;;;;;;5012974;28;20050;-77
2022/04/21 07:03:27;;;;;;;9.98;6.03;;;10.90;99.90;;;;;;5016441;28;20063;-77
2022/04/21 07:05:55;;;;;;;10.32;6.10;;;11.00;99.90;;;;;;5018861;28;20048;-75
2022/04/21 07:08:22;;;;;;;10.60;6.28;;;11.10;99.90;;;;;;5016312;28;20130;-75
2022/04/21 07:10:47;;;;;;;9.88;5.45;;;11.20;99.90;;;;;;5014230;28;21282;-76
2022/04/21 07:13:13;;;;;;;9.80;6.35;;;11.30;99.90;;;;;;5016256;28;20049;-76
2022/04/21 07:15:40;;;;;;;7.30;4.88;;;11.40;99.90;;;;;;5020357;28;20044;-77
2022/04/21 07:18:06;;;;;;;7.93;5.75;;;11.50;99.90;;;;;;4998866;28;20073;-76
2022/04/21 07:20:32;;;;;;;9.38;6.13;;;11.60;99.90;;;;;;5015591;28;20054;-77
2022/04/21 07:22:58;;;;;;;10.10;6.38;;;11.60;99.90;;;;;;5019495;28;20459;-78
2022/04/21 07:25:23;;;;;;;7.95;4.95;;;11.70;99.90;;;;;;5013480;28;20045;-77
2022/04/21 07:27:49;;;;;;;8.20;4.70;;;11.80;99.90;;;;;;5013193;28;20050;-77
2022/04/21 07:30:15;;;;;;;8.80;5.40;;;11.80;99.90;;;;;;5018299;28;20045;-77
2022/04/21 07:32:43;;;;;;;9.27;4.68;;;11.90;99.90;;;;;;5014601;28;20049;-77
2022/04/21 07:35:09;;;;;;;9.57;5.45;;;12.00;99.90;;;;;;5014294;28;20084;-76
2022/04/21 07:37:37;;;;;;;7.30;4.78;;;12.10;99.90;;;;;;5019257;28;20045;-78
2022/04/21 07:40:04;;;;;;;9.38;5.05;;;12.20;99.90;;;;;;5012887;28;20044;-77
2022/04/21 07:42:30;;;;;;;9.35;5.65;;;12.30;99.90;;;;;;5013499;28;20069;-77
2022/04/21 07:44:59;;;;;;;7.22;5.32;;;12.40;99.90;;;;;;5018533;28;20497;-77
2022/04/21 07:47:25;;;;;;;12.55;5.47;;;12.50;99.90;;;;;;5011812;28;20041;-76
2022/04/21 07:49:51;;;;;;;8.70;5.57;;;12.60;99.90;;;;;;5012521;28;20535;-77
2022/04/21 07:55:25;;;;;;;9.50;4.78;;;12.90;99.90;;;;;;5014427;28;20033;-76
2022/04/21 07:57:58;;;;;;;9.98;4.95;;;13.00;99.90;;;;;;5016069;28;20053;-77
2022/04/21 08:00:25;;;;;;;7.05;4.55;;;13.20;99.90;;;;;;5015069;28;20060;-81
2022/04/21 08:02:50;;;;;;;6.10;4.18;;;13.30;99.90;;;;;;5018729;28;20099;-77
2022/04/21 08:05:19;;;;;;;7.95;4.60;;;13.40;99.90;;;;;;5014943;28;20501;-76
2022/04/21 08:07:45;;;;;;;7.57;5.05;;;13.40;99.90;;;;;;5014058;28;20049;-77
2022/04/21 08:10:12;;;;;;;9.43;5.07;;;13.50;99.90;;;;;;5012790;28;20545;-70
2022/04/21 08:12:42;;;;;;;8.70;4.85;;;13.60;99.90;;;;;;5015827;28;20057;-71
2022/04/21 08:15:10;;;;;;;7.63;4.63;;;13.70;99.90;;;;;;5023962;28;20096;-71
2022/04/21 08:17:37;;;;;;;8.43;4.70;;;13.80;99.90;;;;;;5018736;28;20446;-71
2022/04/21 08:20:08;;;;;;;5.65;4.63;;;13.90;99.90;;;;;;5019368;28;20143;-70
2022/04/21 08:22:34;;;;;;;6.78;4.03;;;14.00;99.90;;;;;;5022515;28;20400;-71
2022/04/21 08:33:18;;;;;;;5.85;3.70;;;14.60;99.90;;;;;;5017345;28;20038;-71
2022/04/21 08:35:44;;;;;;;6.07;4.00;;;14.70;99.90;;;;;;5013642;28;20053;-69
2022/04/21 08:38:11;;;;;;;6.78;4.20;;;14.80;99.90;;;;;;5014482;28;20042;-70
2022/04/21 08:40:38;;;;;;;6.60;3.90;;;14.80;99.90;;;;;;5023002;28;20084;-71
2022/04/21 08:43:15;;;;;;;6.05;3.65;;;14.80;99.90;;;;;;5019054;28;20049;-74
2022/04/21 08:45:45;;;;;;;7.05;3.58;;;14.70;99.90;;;;;;5020625;28;20044;-74
2022/04/21 08:48:15;;;;;;;7.07;3.60;;;14.70;99.90;;;;;;5018239;28;20048;-77
2022/04/21 08:50:42;;;;;;;4.68;3.47;;;14.70;99.90;;;;;;5037918;28;20050;-77
2022/04/21 08:53:09;;;;;;;7.00;3.78;;;14.80;99.90;;;;;;5026195;28;20700;-76
2022/04/21 08:55:35;;;;;;;5.28;3.30;;;14.80;99.90;;;;;;5020320;28;20048;-77
2022/04/21 08:58:01;;;;;;;5.95;3.30;;;14.80;99.90;;;;;;5022079;28;20061;-73
2022/04/21 09:00:29;;;;;;;8.02;3.40;;;14.90;99.90;;;;;;5018910;28;20111;-77
2022/04/21 09:02:54;;;;;;;9.48;3.60;;;14.90;99.90;;;;;;5021353;28;20042;-77
2022/04/21 09:05:22;;;;;;;5.15;2.75;;;15.00;99.90;;;;;;5019353;28;20126;-76
2022/04/21 09:07:50;;;;;;;9.02;4.03;;;15.10;99.90;;;;;;5024765;28;20053;-76
2022/04/21 09:10:17;;;;;;;5.32;3.58;;;15.20;99.90;;;;;;5024984;28;20037;-75
2022/04/21 09:12:57;;;;;;;4.82;3.03;;;15.20;99.80;;;;;;5023730;28;20045;-76
2022/04/21 09:15:31;;;;;;;5.20;3.10;;;15.40;99.90;;;;;;5018120;28;20642;-76
2022/04/21 09:17:59;;;;;;;4.80;2.90;;;15.40;99.90;;;;;;5025453;28;20052;-76
2022/04/21 09:20:29;;;;;;;4.20;3.05;;;15.50;99.00;;;;;;5023405;28;20056;-74
2022/04/21 09:23:06;;;;;;;6.18;3.20;;;15.60;99.70;;;;;;5024113;28;20041;-76
2022/04/21 09:25:43;;;;;;;6.32;3.17;;;15.60;98.70;;;;;;5025147;28;20573;-76
2022/04/21 09:28:23;;;;;;;7.07;4.03;;;15.70;98.70;;;;;;5026306;28;20120;-75
2022/04/21 09:30:55;;;;;;;4.60;3.17;;;15.70;98.20;;;;;;5023923;28;20046;-84
2022/04/21 09:33:32;;;;;;;5.97;3.00;;;15.90;99.00;;;;;;5020610;28;20073;-76
2022/04/21 09:35:59;;;;;;;5.82;3.20;;;16.00;98.90;;;;;;5024706;28;20329;-76
2022/04/21 09:38:25;;;;;;;5.05;2.83;;;16.00;98.10;;;;;;5025610;28;20069;-76
2022/04/21 09:40:51;;;;;;;5.80;2.88;;;16.00;97.90;;;;;;5021140;28;20041;-77
2022/04/21 09:43:27;;;;;;;5.22;3.53;;;15.90;97.90;;;;;;5004935;28;20589;-76
2022/04/21 09:46:08;;;;;;;6.30;3.40;;;16.00;98.00;;;;;;5023935;28;20072;-76
2022/04/21 09:48:34;;;;;;;6.85;3.53;;;16.00;97.40;;;;;;5026136;28;20049;-76
2022/04/21 09:51:10;;;;;;;4.95;3.00;;;16.00;97.20;;;;;;5026837;28;20049;-76
2022/04/21 09:53:59;;;;;;;4.60;3.10;;;16.10;97.70;;;;;;5029265;28;20416;-75
2022/04/21 09:56:34;;;;;;;7.05;3.03;;;16.10;97.20;;;;;;5026879;28;20050;-76
2022/04/21 09:59:11;;;;;;;10.75;3.70;;;16.20;97.30;;;;;;5027562;28;20108;-76
2022/04/21 10:01:42;;;;;;;5.88;3.03;;;16.20;97.50;;;;;;5026121;28;20053;-77
2022/04/21 10:04:09;;;;;;;4.95;3.30;;;16.30;97.50;;;;;;5028354;28;20128;-76
2022/04/21 10:06:39;;;;;;;9.18;2.95;;;16.40;97.30;;;;;;5028165;28;20106;-77
2022/04/21 10:09:07;;;;;;;4.80;2.85;;;16.30;96.80;;;;;;5024716;28;20046;-76
2022/04/21 10:11:34;;;;;;;4.97;3.20;;;16.30;96.80;;;;;;5027093;28;20060;-77
2022/04/21 10:13:59;;;;;;;7.10;3.05;;;16.40;97.30;;;;;;5026647;28;20046;-77
2022/04/21 10:16:28;;;;;;;4.45;2.97;;;16.30;96.30;;;;;;5025583;28;20037;-77
2022/04/21 10:18:59;;;;;;;6.78;3.05;;;16.30;96.10;;;;;;5027049;28;20046;-77
2022/04/21 10:21:48;;;;;;;6.20;3.15;;;16.30;96.50;;;;;;5026612;28;20053;-77
2022/04/21 10:24:24;;;;;;;5.88;3.03;;;16.40;96.60;;;;;;5026826;28;20563;-76
2022/04/21 10:26:50;;;;;;;5.65;3.10;;;16.50;97.20;;;;;;5022780;28;20580;-76
2022/04/21 10:29:23;;;;;;;5.28;3.20;;;16.50;96.70;;;;;;5019897;28;20042;-76
2022/04/21 10:31:50;;;;;;;5.85;3.05;;;16.60;97.50;;;;;;5025943;28;20627;-77
2022/04/21 10:34:29;;;;;;;5.93;2.78;;;16.60;96.70;;;;;;5026284;28;20435;-76
2022/04/21 10:37:20;;;;;;;4.97;3.30;;;16.60;96.20;;;;;;5023255;28;20045;-76
2022/04/21 10:40:07;;;;;;;5.18;3.03;;;16.60;96.60;;;;;;5021347;28;20065;-73
2022/04/21 10:42:51;;;;;;;7.53;2.90;;;16.60;96.20;;;;;;5024667;28;20049;-84
2022/04/21 10:45:23;;;;;;;4.28;2.60;;;16.60;96.20;;;;;;5024828;28;20124;-76
2022/04/21 10:48:08;;;;;;;6.80;3.20;;;16.60;95.90;;;;;;5017888;28;20717;-76
2022/04/21 10:50:36;;;;;;;4.45;3.00;;;16.70;96.20;;;;;;5017436;28;20056;-76
2022/04/21 10:58:34;;;;;;;4.47;3.03;;;16.80;95.90;;;;;;5025499;28;20045;-76
2022/04/21 11:01:10;;;;;;;6.18;2.95;;;16.80;95.20;;;;;;5019355;28;20512;-77
2022/04/21 11:03:37;;;;;;;4.35;2.35;;;16.90;95.90;;;;;;5019287;28;20041;-78
2022/04/21 11:06:12;;;;;;;7.65;2.88;;;16.90;95.80;;;;;;5023098;28;20047;-75
2022/04/21 11:08:38;;;;;;;3.42;2.50;;;16.90;95.00;;;;;;5025232;28;20041;-80
2022/04/21 11:11:04;;;;;;;4.55;2.83;;;16.60;94.90;;;;;;5025525;28;20056;-78
2022/04/21 11:13:39;;;;;;;3.95;2.85;;;16.50;94.80;;;;;;5025740;28;20045;-81
2022/04/21 11:16:05;;;;;;;5.53;2.80;;;16.60;96.20;;;;;;5026470;28;20041;-79
2022/04/21 11:18:31;;;;;;;4.80;3.17;;;16.70;96.60;;;;;;5025214;28;20049;-79
2022/04/21 11:21:29;;;;;;;5.85;2.90;;;16.80;95.20;;;;;;5024737;28;20345;-79
2022/04/21 11:23:54;;;;;;;3.97;2.85;;;16.80;95.10;;;;;;5021559;28;20562;-81
2022/04/21 11:26:30;;;;;;;5.55;2.72;;;16.80;94.40;;;;;;5023427;28;20121;-82
2022/04/21 11:29:02;;;;;;;5.03;3.35;;;16.90;95.20;;;;;;5021976;28;20082;-83
2022/04/21 11:31:28;;;;;;;7.22;2.80;;;16.80;95.00;;;;;;5020441;28;20107;-82
2022/04/21 11:34:00;;;;;;;15.05;4.13;;;17.00;94.90;;;;;;5020816;28;20581;-80
2022/04/21 11:36:35;;;;;;;6.33;3.70;;;17.10;94.40;;;;;;5032865;28;20052;-81
2022/04/21 11:39:06;;;;;;;5.97;4.00;;;17.10;96.00;;;;;;5037841;28;20049;-80
2022/04/21 11:41:32;;;;;;;8.13;4.18;;;17.20;96.60;;;;;;5023576;28;20409;-78
2022/04/21 11:43:58;;;;;;;6.35;4.00;;;17.30;96.90;;;;;;5018542;28;20052;-78
2022/04/21 11:46:24;;;;;;;7.30;3.65;;;17.10;97.00;;;;;;5017756;28;20042;-78
2022/04/21 11:49:03;;;;;;;7.15;4.15;;;17.00;97.20;;;;;;5016524;28;20103;-79
2022/04/21 11:51:29;;;;;;;6.78;3.80;;;16.80;96.00;;;;;;5019989;28;20401;-78
2022/04/21 11:53:56;;;;;;;7.18;3.75;;;16.70;95.90;;;;;;5014524;28;20045;-78
2022/04/21 11:56:21;;;;;;;9.70;3.10;;;16.60;97.40;;;;;;5016742;28;20045;-78
2022/04/21 11:58:47;;;;;;;4.60;3.30;;;16.50;98.00;;;;;;5017770;28;20088;-78
2022/04/21 12:06:50;;;;;;;5.07;3.50;;;16.70;96.50;;;;;;5014401;28;20371;-79
2022/04/21 12:09:21;;;;;;;5.82;3.00;;;16.80;96.70;;;;;;5014158;28;20116;-77
2022/04/21 12:11:49;;;;;;;7.60;3.75;;;16.70;96.60;;;;;;5022507;28;20116;-79
2022/04/21 12:14:18;;;;;;;9.13;3.53;;;16.50;97.20;;;;;;5017755;28;20051;-74
2022/04/21 12:16:44;;;;;;;6.40;3.38;;;16.60;97.60;;;;;;5011946;28;20060;-78
2022/04/21 12:19:17;;;;;;;4.53;3.22;;;16.70;97.80;;;;;;5011513;28;20041;-79
2022/04/21 12:21:57;;;;;;;5.03;2.92;;;16.70;97.10;;;;;;5022565;28;20090;-79
2022/04/21 12:24:29;;;;;;;5.68;3.38;;;16.90;97.70;;;;;;5019384;28;20197;-79
2022/04/21 12:26:55;;;;;;;6.72;3.35;;;16.90;97.10;;;;;;5018866;28;20045;-77
2022/04/21 12:29:22;;;;;;;5.57;3.40;;;17.00;96.70;;;;;;5015329;28;20124;-78
2022/04/21 12:31:57;;;;;;;12.80;3.60;;;17.00;96.30;;;;;;5017668;28;20084;-81
2022/04/21 12:34:28;;;;;;;5.15;3.38;;;17.00;96.80;;;;;;5013936;28;20046;-79
2022/04/21 12:36:57;;;;;;;4.97;3.40;;;16.90;96.40;;;;;;5023693;28;20107;-78
2022/04/21 12:39:24;;;;;;;4.93;3.22;;;16.90;96.90;;;;;;5019243;28;20328;-77
2022/04/21 12:41:51;;;;;;;6.50;3.47;;;16.90;97.00;;;;;;5017502;28;20519;-81
2022/04/21 12:44:18;;;;;;;9.55;3.97;;;17.10;97.30;;;;;;5017898;28;20059;-81
2022/04/21 12:47:22;;;;;;;6.72;3.53;;;17.10;96.60;;;;;;5020141;28;20492;-79
2022/04/21 12:50:01;;;;;;;;;;;17.10;96.10;;;;;;5018648;28;20064;-80
2022/04/21 12:52:37;;;;;;;12.25;3.95;;;17.00;96.60;;;;;;5017875;28;20399;-79
2022/04/21 12:55:11;;;;;;;7.70;3.80;;;17.00;96.80;;;;;;5016775;28;20489;-78
2022/04/21 12:57:38;;;;;;;5.13;3.40;;;17.00;97.10;;;;;;5014959;28;20045;-80
2022/04/21 13:00:07;;;;;;;8.95;3.70;;;16.80;96.80;;;;;;5014938;28;20493;-79
2022/04/21 13:02:32;;;;;;;5.20;3.58;;;16.80;97.30;;;;;;5019215;28;20045;-81
2022/04/21 13:04:58;;;;;;;6.65;3.58;;;16.80;97.20;;;;;;4987500;28;20088;-81
2022/04/21 13:07:24;;;;;;;9.23;3.45;;;16.90;97.10;;;;;;5018869;28;20041;-79
2022/04/21 13:09:50;;;;;;;7.22;3.33;;;17.00;97.00;;;;;;5011420;28;20045;-81
2022/04/21 13:12:16;;;;;;;9.00;3.47;;;17.00;96.70;;;;;;5018491;28;20064;-83
2022/04/21 13:14:42;;;;;;;4.82;3.50;;;16.90;96.20;;;;;;5017731;28;20081;-78
2022/04/21 13:17:08;;;;;;;5.43;3.60;;;16.70;96.50;;;;;;5017442;28;20065;-78
2022/04/21 13:19:34;;;;;;;7.13;3.95;;;16.60;96.10;;;;;;5014881;28;20052;-78
2022/04/21 13:22:01;;;;;;;5.75;3.67;;;16.70;96.30;;;;;;5015071;28;20045;-78
2022/04/21 13:24:28;;;;;;;5.35;3.63;;;16.60;97.10;;;;;;5020871;28;20041;-80
2022/04/21 13:26:56;;;;;;;8.52;3.78;;;16.40;96.10;;;;;;5023745;28;20041;-79
2022/04/21 13:29:22;;;;;;;5.80;3.30;;;16.50;96.70;;;;;;5023824;28;20227;-78
2022/04/21 13:34:33;;;;;;;6.10;3.50;;;16.50;96.60;;;;;;5017667;28;20041;-79
2022/04/21 13:37:01;;;;;;;4.70;3.13;;;16.60;96.90;;;;;;5022270;28;20602;-78
2022/04/21 13:39:27;;;;;;;5.60;3.58;;;16.60;96.70;;;;;;5022480;28;20080;-78
2022/04/21 13:41:53;;;;;;;5.47;3.67;;;16.60;96.50;;;;;;5021904;28;20628;-78